createdAt,value
2018-06-07T00:00:11.693Z,15.2
2018-06-07T00:01:13.482Z,16.4
2018-06-07T00:02:15.142Z,15.3
2018-06-07T00:03:16.801Z,15.8
2018-06-07T00:04:18.448Z,16.4
2018-06-07T00:05:20.111Z,15.0
2018-06-07T00:06:21.771Z,15.8
2018-06-07T00:07:23.495Z,15.9
2018-06-07T00:08:25.151Z,16.2
2018-06-07T00:09:26.804Z,16.6
2018-06-07T00:10:28.485Z,15.7
2018-06-07T00:11:30.140Z,15.5
2018-06-07T00:12:31.814Z,15.4
2018-06-07T00:13:33.464Z,16.2
2018-06-07T00:14:35.111Z,16.2
2018-06-07T00:15:36.760Z,16.2
2018-06-07T00:16:38.464Z,15.7
2018-06-07T00:17:40.125Z,16.2
2018-06-07T00:18:41.786Z,15.1
2018-06-07T00:19:43.437Z,15.7
2018-06-07T00:20:45.094Z,16.1
2018-06-07T00:21:46.754Z,15.6
2018-06-07T00:22:48.413Z,15.1
2018-06-07T00:23:50.069Z,15.8
2018-06-07T00:24:51.720Z,15.6
2018-06-07T00:25:53.381Z,15.9
2018-06-07T00:26:55.042Z,16.0
2018-06-07T00:27:56.697Z,15.0
2018-06-07T00:28:58.346Z,15.0
2018-06-07T00:30:00.033Z,15.1
2018-06-07T00:31:01.673Z,15.0
2018-06-07T00:32:03.326Z,14.8
2018-06-07T00:33:04.998Z,14.9
2018-06-07T00:34:06.643Z,16.0
2018-06-07T00:35:08.300Z,15.2
2018-06-07T00:36:09.987Z,14.7
2018-06-07T00:37:11.649Z,15.5
2018-06-07T00:38:13.328Z,15.1
2018-06-07T00:39:15.068Z,14.8
2018-06-07T00:40:16.721Z,15.7
2018-06-07T00:41:18.441Z,16.0
2018-06-07T00:42:20.118Z,15.4
2018-06-07T00:43:21.864Z,15.8
2018-06-07T00:44:23.521Z,16.0
2018-06-07T00:45:25.183Z,15.3
2018-06-07T00:46:26.902Z,16.0
2018-06-07T00:47:28.519Z,16.5
2018-06-07T00:48:30.168Z,16.9
2018-06-07T00:49:31.841Z,18.0
2018-06-07T00:50:33.487Z,16.9
2018-06-07T00:51:35.161Z,16.7
2018-06-07T00:52:36.826Z,15.9
2018-06-07T00:53:38.509Z,15.9
2018-06-07T00:54:40.165Z,16.4
2018-06-07T00:55:41.873Z,16.8
2018-06-07T00:56:43.535Z,16.8
2018-06-07T00:57:45.200Z,16.7
2018-06-07T00:58:46.853Z,16.7
2018-06-07T00:59:48.509Z,17.8
2018-06-07T01:00:50.172Z,17.4
2018-06-07T01:01:51.837Z,17.3
2018-06-07T01:02:53.496Z,17.2
2018-06-07T01:03:55.154Z,17.4
2018-06-07T01:04:56.808Z,17.4
2018-06-07T01:05:58.467Z,18.5
2018-06-07T01:07:00.124Z,17.2
2018-06-07T01:08:01.788Z,17.8
2018-06-07T01:09:03.453Z,18.4
2018-06-07T01:10:05.101Z,18.7
2018-06-07T01:11:06.974Z,15.8
2018-06-07T01:12:08.636Z,15.5
2018-06-07T01:13:10.376Z,16.7
2018-06-07T01:14:12.047Z,17.7
2018-06-07T01:15:13.715Z,17.9
2018-06-07T01:16:15.379Z,17.8
2018-06-07T01:17:17.046Z,17.6
2018-06-07T01:18:18.751Z,16.7
2018-06-07T01:19:20.401Z,15.6
2018-06-07T01:20:22.058Z,16.5
2018-06-07T01:21:23.715Z,16.2
2018-06-07T01:22:25.377Z,16.4
2018-06-07T01:23:27.038Z,16.6
2018-06-07T01:24:28.693Z,17.0
2018-06-07T01:25:30.338Z,17.4
2018-06-07T01:26:31.995Z,17.4
2018-06-07T01:27:33.661Z,16.6
2018-06-07T01:28:35.306Z,16.9
2018-06-07T01:29:36.961Z,16.9
2018-06-07T01:30:38.643Z,15.9
2018-06-07T01:31:40.303Z,16.6
2018-06-07T01:32:41.967Z,17.3
2018-06-07T01:33:43.635Z,18.1
2018-06-07T01:34:45.280Z,16.8
2018-06-07T01:35:46.942Z,17.1
2018-06-07T01:36:48.606Z,17.5
2018-06-07T01:37:50.302Z,17.7
2018-06-07T01:38:51.962Z,17.8
2018-06-07T01:39:53.609Z,18.0
2018-06-07T01:40:55.273Z,16.8
2018-06-07T01:41:56.929Z,17.8
2018-06-07T01:42:58.595Z,17.7
2018-06-07T01:44:00.243Z,17.6
2018-06-07T01:45:01.922Z,17.6
2018-06-07T01:46:03.573Z,17.5
2018-06-07T01:47:05.230Z,17.4
2018-06-07T01:48:06.880Z,17.7
2018-06-07T01:49:08.681Z,16.3
2018-06-07T01:50:10.337Z,16.3
2018-06-07T01:51:11.994Z,17.5
2018-06-07T01:52:13.729Z,17.2
2018-06-07T01:53:15.386Z,17.7
2018-06-07T01:54:17.052Z,18.5
2018-06-07T01:55:18.703Z,17.7
2018-06-07T02:01:35.816Z,17.0
2018-06-07T02:02:37.478Z,16.4
2018-06-07T02:03:39.140Z,16.5
2018-06-07T02:04:40.788Z,18.0
2018-06-07T02:05:42.455Z,17.9
2018-06-07T02:06:44.116Z,18.8
2018-06-07T02:07:45.769Z,18.5
2018-06-07T02:08:47.429Z,18.7
2018-06-07T02:09:49.082Z,18.8
2018-06-07T02:10:50.736Z,17.7
2018-06-07T02:11:52.391Z,19.5
2018-06-07T02:12:54.050Z,18.2
2018-06-07T02:13:55.700Z,18.4
2018-06-07T02:14:58.187Z,18.0
2018-06-07T02:15:59.848Z,18.8
2018-06-07T02:17:01.498Z,18.7
2018-06-07T02:18:03.152Z,19.1
2018-06-07T02:19:04.812Z,18.1
2018-06-07T02:20:06.476Z,18.9
2018-06-07T02:21:08.129Z,17.7
2018-06-07T02:22:09.788Z,18.1
2018-06-07T02:23:11.447Z,18.4
2018-06-07T02:24:13.787Z,18.2
2018-06-07T02:25:15.447Z,19.5
2018-06-07T02:26:17.114Z,20.2
2018-06-07T02:27:18.774Z,19.2
2018-06-07T02:28:20.487Z,20.1
2018-06-07T02:29:22.144Z,19.4
2018-06-07T02:30:23.799Z,19.7
2018-06-07T02:31:25.454Z,19.5
2018-06-07T02:32:27.117Z,19.2
2018-06-07T02:33:28.784Z,18.8
2018-06-07T02:34:30.435Z,19.4
2018-06-07T02:35:32.092Z,20.2
2018-06-07T02:36:33.746Z,19.0
2018-06-07T02:37:35.398Z,20.3
2018-06-07T02:38:37.062Z,19.2
2018-06-07T02:39:38.740Z,19.2
2018-06-07T02:40:40.393Z,19.7
2018-06-07T02:41:42.073Z,18.6
2018-06-07T02:42:43.730Z,19.4
2018-06-07T02:43:45.398Z,19.9
2018-06-07T02:44:47.050Z,18.9
2018-06-07T02:45:48.709Z,20.2
2018-06-07T02:46:50.358Z,19.4
2018-06-07T02:47:52.017Z,21.0
2018-06-07T02:48:53.672Z,19.0
2018-06-07T02:49:55.336Z,20.3
2018-06-07T02:50:57.001Z,19.7
2018-06-07T02:51:58.654Z,20.8
2018-06-07T02:53:00.310Z,20.7
2018-06-07T02:54:01.968Z,20.1
2018-06-07T02:55:03.621Z,19.9
2018-06-07T02:56:05.274Z,19.5
2018-06-07T02:57:06.959Z,19.0
2018-06-07T02:58:08.622Z,18.9
2018-06-07T02:59:10.282Z,19.4
2018-06-07T03:00:11.952Z,19.7
2018-06-07T03:01:13.600Z,19.5
2018-06-07T03:02:15.255Z,17.9
2018-06-07T03:03:16.914Z,19.4
2018-06-07T03:04:18.573Z,19.6
2018-06-07T03:05:20.244Z,19.3
2018-06-07T03:06:21.902Z,18.8
2018-06-07T03:07:23.568Z,18.6
2018-06-07T03:08:25.230Z,18.7
2018-06-07T03:09:26.882Z,19.5
2018-06-07T03:10:28.538Z,19.3
2018-06-07T03:11:30.227Z,19.4
2018-06-07T03:12:31.878Z,17.4
2018-06-07T03:13:33.544Z,19.3
2018-06-07T03:14:35.196Z,18.7
2018-06-07T03:15:36.850Z,19.0
2018-06-07T03:16:38.549Z,19.2
2018-06-07T03:17:40.220Z,18.5
2018-06-07T03:18:41.901Z,19.9
2018-06-07T03:19:43.556Z,19.0
2018-06-07T03:20:45.212Z,19.3
2018-06-07T03:21:46.885Z,20.3
2018-06-07T03:22:48.530Z,20.0
2018-06-07T03:23:50.191Z,21.6
2018-06-07T03:24:51.848Z,21.0
2018-06-07T03:25:53.511Z,21.5
2018-06-07T03:26:55.161Z,22.6
2018-06-07T03:27:56.828Z,21.5
2018-06-07T03:28:58.485Z,22.1
2018-06-07T03:30:00.150Z,21.9
2018-06-07T03:31:01.809Z,21.1
2018-06-07T03:32:03.466Z,22.8
2018-06-07T03:33:05.133Z,22.5
2018-06-07T03:34:06.794Z,21.5
2018-06-07T03:35:08.463Z,20.3
2018-06-07T03:36:10.121Z,19.9
2018-06-07T03:37:11.771Z,19.7
2018-06-07T03:38:13.434Z,20.7
2018-06-07T03:39:15.208Z,20.7
2018-06-07T03:40:16.868Z,21.3
2018-06-07T03:41:18.526Z,19.3
2018-06-07T03:42:20.182Z,19.7
2018-06-07T03:43:21.834Z,19.5
2018-06-07T03:44:23.488Z,20.4
2018-06-07T03:45:25.141Z,19.7
2018-06-07T03:46:26.802Z,20.9
2018-06-07T03:47:28.485Z,19.8
2018-06-07T03:48:30.142Z,21.4
2018-06-07T03:49:31.817Z,20.3
2018-06-07T03:50:33.474Z,20.2
2018-06-07T03:51:35.135Z,20.4
2018-06-07T03:52:36.809Z,20.4
2018-06-07T03:53:38.483Z,19.7
2018-06-07T03:54:40.142Z,20.7
2018-06-07T03:55:41.805Z,20.0
2018-06-07T03:56:43.471Z,21.7
2018-06-07T03:57:45.133Z,20.3
2018-06-07T03:58:46.786Z,19.6
2018-06-07T03:59:48.447Z,19.3
2018-06-07T04:00:50.099Z,19.5
2018-06-07T04:01:51.762Z,18.8
2018-06-07T04:02:53.432Z,20.3
2018-06-07T04:03:55.106Z,19.2
2018-06-07T04:04:56.763Z,19.4
2018-06-07T04:05:58.471Z,19.6
2018-06-07T04:07:00.129Z,18.9
2018-06-07T04:08:01.787Z,20.0
2018-06-07T04:09:03.448Z,18.7
2018-06-07T04:10:05.119Z,20.2
2018-06-07T04:11:06.797Z,19.7
2018-06-07T04:12:08.460Z,19.8
2018-06-07T04:13:10.115Z,19.8
2018-06-07T04:14:11.788Z,20.0
2018-06-07T04:15:13.449Z,19.6
2018-06-07T04:16:15.117Z,21.0
2018-06-07T04:17:16.782Z,20.9
2018-06-07T04:18:18.433Z,20.3
2018-06-07T04:19:20.104Z,18.4
2018-06-07T04:20:21.750Z,19.4
2018-06-07T04:21:23.404Z,20.5
2018-06-07T04:22:25.071Z,19.9
2018-06-07T04:23:26.721Z,19.9
2018-06-07T04:24:28.388Z,20.8
2018-06-07T04:25:30.068Z,18.8
2018-06-07T04:26:31.728Z,21.4
2018-06-07T04:27:33.393Z,19.4
2018-06-07T04:28:35.052Z,20.0
2018-06-07T04:29:36.722Z,18.4
2018-06-07T04:30:38.420Z,18.4
2018-06-07T04:31:40.086Z,18.1
2018-06-07T04:32:42.276Z,17.8
2018-06-07T04:33:43.936Z,18.0
2018-06-07T04:34:45.596Z,17.1
2018-06-07T04:35:47.264Z,16.1
2018-06-07T04:36:48.926Z,15.4
2018-06-07T04:37:50.652Z,16.0
2018-06-07T04:38:52.323Z,16.7
2018-06-07T04:39:53.993Z,17.0
2018-06-07T04:40:55.653Z,16.6
2018-06-07T04:41:57.325Z,16.1
2018-06-07T04:42:58.985Z,16.2
2018-06-07T04:44:00.644Z,16.3
2018-06-07T04:45:02.323Z,16.3
2018-06-07T04:46:03.991Z,16.2
2018-06-07T04:47:05.660Z,16.2
2018-06-07T04:48:07.325Z,17.2
2018-06-07T04:49:08.976Z,15.5
2018-06-07T04:50:10.639Z,15.6
2018-06-07T04:51:12.307Z,14.8
2018-06-07T04:52:13.972Z,15.4
2018-06-07T04:53:15.645Z,15.3
2018-06-07T04:54:17.310Z,14.9
2018-06-07T04:55:19.033Z,14.3
2018-06-07T04:56:20.643Z,14.7
2018-06-07T04:57:22.298Z,14.4
2018-06-07T04:58:23.971Z,15.1
2018-06-07T04:59:25.628Z,15.0
2018-06-07T05:00:27.304Z,15.0
2018-06-07T05:01:28.971Z,14.7
2018-06-07T05:02:30.638Z,15.7
2018-06-07T05:03:32.390Z,15.0
2018-06-07T05:04:34.061Z,15.6
2018-06-07T05:05:35.773Z,15.7
2018-06-07T05:06:37.483Z,14.6
2018-06-07T05:07:39.108Z,14.4
2018-06-07T05:08:40.779Z,14.9
2018-06-07T05:09:42.453Z,14.9
2018-06-07T05:10:44.116Z,14.7
2018-06-07T05:11:45.786Z,14.3
2018-06-07T05:12:47.462Z,15.0
2018-06-07T05:13:49.134Z,15.9
2018-06-07T05:14:50.828Z,15.4
2018-06-07T05:15:52.503Z,15.9
2018-06-07T05:16:54.173Z,15.6
2018-06-07T05:17:55.835Z,14.7
2018-06-07T05:18:57.505Z,15.5
2018-06-07T05:19:59.204Z,15.8
2018-06-07T05:21:00.865Z,15.2
2018-06-07T05:22:02.532Z,14.3
2018-06-07T05:23:04.218Z,15.8
2018-06-07T05:24:05.891Z,14.7
2018-06-07T05:25:07.612Z,14.8
2018-06-07T05:26:09.278Z,15.6
2018-06-07T05:27:10.944Z,14.1
2018-06-07T05:28:12.624Z,13.7
2018-06-07T05:29:14.297Z,14.5
2018-06-07T05:30:15.985Z,14.1
2018-06-07T05:31:17.725Z,14.0
2018-06-07T05:32:19.371Z,13.1
2018-06-07T05:33:21.042Z,13.7
2018-06-07T05:34:22.705Z,13.7
2018-06-07T05:35:24.379Z,13.1
2018-06-07T05:36:26.054Z,13.9
2018-06-07T05:37:27.792Z,14.2
2018-06-07T05:38:29.463Z,13.4
2018-06-07T05:39:31.134Z,12.6
2018-06-07T05:40:32.791Z,13.1
2018-06-07T05:41:34.474Z,13.4
2018-06-07T05:42:36.149Z,12.8
2018-06-07T05:43:37.860Z,12.6
2018-06-07T05:44:39.530Z,13.9
2018-06-07T05:45:41.201Z,14.2
2018-06-07T05:46:42.871Z,13.1
2018-06-07T05:47:44.559Z,13.2
2018-06-07T05:48:46.220Z,14.5
2018-06-07T05:49:47.895Z,14.0
2018-06-07T05:50:49.582Z,14.1
2018-06-07T05:51:51.293Z,14.2
2018-06-07T05:52:52.913Z,13.7
2018-06-07T05:53:54.577Z,15.0
2018-06-07T05:54:56.238Z,15.2
2018-06-07T06:01:12.299Z,12.1
2018-06-07T06:02:13.960Z,13.9
2018-06-07T06:03:15.625Z,13.8
2018-06-07T06:04:17.290Z,13.5
2018-06-07T06:05:18.972Z,13.4
2018-06-07T06:06:20.633Z,13.4
2018-06-07T06:07:22.307Z,15.2
2018-06-07T06:08:23.972Z,14.3
2018-06-07T06:09:25.675Z,13.9
2018-06-07T06:10:27.309Z,13.9
2018-06-07T06:11:28.975Z,13.2
2018-06-07T06:12:30.639Z,12.9
2018-06-07T06:13:32.317Z,13.0
2018-06-07T06:14:33.979Z,12.8
2018-06-07T06:15:35.650Z,14.5
2018-06-07T06:16:37.336Z,13.5
2018-06-07T06:17:39.002Z,13.4
2018-06-07T06:18:40.671Z,13.5
2018-06-07T06:19:42.353Z,13.8
2018-06-07T06:20:44.028Z,13.9
2018-06-07T06:21:45.694Z,12.8
2018-06-07T06:22:47.401Z,11.9
2018-06-07T06:23:49.076Z,12.3
2018-06-07T06:24:50.744Z,12.6
2018-06-07T06:25:52.437Z,11.8
2018-06-07T06:26:54.142Z,12.1
2018-06-07T06:27:55.829Z,13.0
2018-06-07T06:28:57.503Z,13.3
2018-06-07T06:29:59.168Z,12.1
2018-06-07T06:31:00.837Z,12.8
2018-06-07T06:32:02.512Z,12.8
2018-06-07T06:33:04.181Z,12.6
2018-06-07T06:34:05.857Z,13.4
2018-06-07T06:35:07.529Z,13.5
2018-06-07T06:36:09.202Z,12.7
2018-06-07T06:37:10.885Z,12.5
2018-06-07T06:38:12.585Z,12.7
2018-06-07T06:39:14.307Z,12.3
2018-06-07T06:40:15.930Z,12.6
2018-06-07T06:41:17.609Z,12.8
2018-06-07T06:42:19.277Z,13.1
2018-06-07T06:43:20.956Z,12.9
2018-06-07T06:44:22.635Z,13.9
2018-06-07T06:45:24.325Z,12.9
2018-06-07T06:46:26.036Z,12.6
2018-06-07T06:47:27.740Z,12.5
2018-06-07T06:48:29.429Z,12.4
2018-06-07T06:49:31.142Z,11.9
2018-06-07T06:50:32.828Z,12.8
2018-06-07T06:51:34.500Z,12.2
2018-06-07T06:52:36.181Z,14.3
2018-06-07T06:53:37.886Z,13.1
2018-06-07T06:54:39.564Z,13.1
2018-06-07T06:55:41.240Z,12.8
2018-06-07T06:56:42.929Z,13.0
2018-06-07T06:57:44.600Z,14.3
2018-06-07T06:58:46.294Z,13.4
2018-06-07T06:59:47.986Z,13.7
2018-06-07T07:00:49.661Z,13.3
2018-06-07T07:01:51.331Z,13.8
2018-06-07T07:02:52.996Z,13.6
2018-06-07T07:03:54.663Z,12.5
2018-06-07T07:04:56.349Z,12.3
2018-06-07T07:05:58.029Z,12.8
2018-06-07T07:06:59.695Z,12.8
2018-06-07T07:08:01.401Z,12.5
2018-06-07T07:09:03.164Z,12.7
2018-06-07T07:10:04.764Z,12.2
2018-06-07T07:11:06.452Z,11.6
2018-06-07T07:12:08.384Z,12.0
2018-06-07T07:13:10.057Z,11.2
2018-06-07T07:14:11.747Z,11.8
2018-06-07T07:15:13.418Z,11.4
2018-06-07T07:16:15.170Z,12.3
2018-06-07T07:17:16.854Z,12.2
2018-06-07T07:18:18.531Z,12.4
2018-06-07T07:19:20.214Z,12.5
2018-06-07T07:20:21.894Z,12.7
2018-06-07T07:21:23.571Z,12.5
2018-06-07T07:22:25.283Z,11.6
2018-06-07T07:23:26.974Z,11.6
2018-06-07T07:24:28.665Z,11.6
2018-06-07T07:25:30.348Z,12.4
2018-06-07T07:26:32.023Z,12.0
2018-06-07T07:27:33.763Z,12.4
2018-06-07T07:28:35.456Z,11.6
2018-06-07T07:29:37.134Z,11.9
2018-06-07T07:30:38.848Z,11.6
2018-06-07T07:31:40.520Z,12.5
2018-06-07T07:32:42.188Z,11.6
2018-06-07T07:33:43.869Z,11.6
2018-06-07T07:34:45.556Z,12.3
2018-06-07T07:35:47.237Z,12.4
2018-06-07T07:36:48.923Z,12.1
2018-06-07T07:37:50.602Z,12.4
2018-06-07T07:38:52.288Z,11.4
2018-06-07T07:39:53.973Z,11.4
2018-06-07T07:40:55.700Z,11.5
2018-06-07T07:41:57.336Z,10.9
2018-06-07T07:42:59.015Z,11.3
2018-06-07T07:44:00.691Z,11.7
2018-06-07T07:45:02.368Z,11.4
2018-06-07T07:46:04.043Z,11.7
2018-06-07T07:47:05.732Z,11.2
2018-06-07T07:48:07.431Z,11.8
2018-06-07T07:49:09.085Z,10.8
2018-06-07T07:50:10.781Z,11.7
2018-06-07T07:51:12.460Z,10.4
2018-06-07T07:52:14.210Z,10.2
2018-06-07T07:53:15.890Z,11.0
2018-06-07T07:54:17.582Z,10.2
2018-06-07T07:55:19.257Z,10.4
2018-06-07T07:56:20.949Z,10.7
2018-06-07T07:57:22.629Z,11.2
2018-06-07T07:58:24.376Z,11.0
2018-06-07T07:59:26.059Z,10.8
2018-06-07T08:00:27.741Z,10.6
2018-06-07T08:01:29.441Z,10.3
2018-06-07T08:02:31.118Z,10.9
2018-06-07T08:03:32.823Z,10.8
2018-06-07T08:04:34.516Z,10.9
2018-06-07T08:05:36.217Z,10.5
2018-06-07T08:06:37.970Z,11.0
2018-06-07T08:07:39.667Z,10.4
2018-06-07T08:08:41.362Z,11.2
2018-06-07T08:09:43.089Z,11.4
2018-06-07T08:10:44.782Z,10.7
2018-06-07T08:11:46.483Z,10.1
2018-06-07T08:12:48.165Z,10.5
2018-06-07T08:13:49.853Z,10.6
2018-06-07T08:14:51.551Z,10.3
2018-06-07T08:15:53.247Z,11.5
2018-06-07T08:16:54.934Z,11.3
2018-06-07T08:17:56.659Z,10.6
2018-06-07T08:18:58.342Z,10.9
2018-06-07T08:20:00.035Z,10.3
2018-06-07T08:21:01.720Z,10.4
2018-06-07T08:22:03.417Z,11.8
2018-06-07T08:23:05.095Z,10.2
2018-06-07T08:24:06.781Z,10.9
2018-06-07T08:25:08.461Z,10.5
2018-06-07T08:26:10.159Z,10.3
2018-06-07T08:27:11.840Z,11.3
2018-06-07T08:28:13.542Z,10.9
2018-06-07T08:29:15.207Z,11.0
2018-06-07T08:30:16.894Z,10.8
2018-06-07T08:31:18.565Z,11.2
2018-06-07T08:32:20.303Z,10.3
2018-06-07T08:33:21.994Z,11.3
2018-06-07T08:34:23.671Z,11.1
2018-06-07T08:35:25.359Z,10.3
2018-06-07T08:36:27.072Z,10.4
2018-06-07T08:37:28.752Z,10.3
2018-06-07T08:38:30.443Z,10.4
2018-06-07T08:39:32.131Z,9.8
2018-06-07T08:40:34.454Z,11.3
2018-06-07T08:41:36.143Z,10.5
2018-06-07T08:42:37.832Z,10.2
2018-06-07T08:43:39.520Z,10.3
2018-06-07T08:44:41.230Z,10.2
2018-06-07T08:45:42.890Z,10.6
2018-06-07T08:46:44.585Z,10.6
2018-06-07T08:47:46.281Z,10.3
2018-06-07T08:48:47.966Z,10.1
2018-06-07T08:49:49.708Z,10.1
2018-06-07T08:50:51.388Z,11.0
2018-06-07T08:51:53.078Z,10.1
2018-06-07T08:52:54.760Z,11.0
2018-06-07T08:53:56.454Z,10.2
2018-06-07T08:54:58.144Z,10.4
2018-06-07T08:55:59.923Z,11.0
2018-06-07T08:57:01.603Z,10.3
2018-06-07T08:58:03.304Z,10.7
2018-06-07T08:59:04.996Z,10.7
2018-06-07T09:00:06.712Z,11.0
2018-06-07T09:01:08.360Z,11.4
2018-06-07T09:02:10.049Z,11.1
2018-06-07T09:03:11.742Z,11.1
2018-06-07T09:04:13.423Z,11.3
2018-06-07T09:05:15.118Z,12.2
2018-06-07T09:06:16.805Z,11.0
2018-06-07T09:07:18.489Z,9.6
2018-06-07T09:08:20.186Z,10.5
2018-06-07T09:09:21.869Z,10.3
2018-06-07T09:10:23.583Z,10.0
2018-06-07T09:11:25.332Z,9.8
2018-06-07T09:12:27.022Z,10.1
2018-06-07T09:13:28.746Z,10.2
2018-06-07T09:14:30.410Z,9.4
2018-06-07T09:15:32.130Z,9.5
2018-06-07T09:16:33.815Z,9.5
2018-06-07T09:17:35.511Z,9.6
2018-06-07T09:18:37.214Z,10.1
2018-06-07T09:19:38.924Z,10.4
2018-06-07T09:20:40.613Z,9.6
2018-06-07T09:21:42.306Z,9.6
2018-06-07T09:22:43.991Z,10.6
2018-06-07T09:23:45.681Z,10.1
2018-06-07T09:24:47.361Z,9.5
2018-06-07T09:25:49.051Z,9.5
2018-06-07T09:26:50.738Z,10.1
2018-06-07T09:27:52.429Z,9.3
2018-06-07T09:28:54.112Z,9.1
2018-06-07T09:29:55.799Z,9.1
2018-06-07T09:30:57.495Z,9.8
2018-06-07T09:31:59.191Z,8.9
2018-06-07T09:33:00.886Z,9.2
2018-06-07T09:34:02.574Z,9.4
2018-06-07T09:35:04.265Z,9.7
2018-06-07T09:36:05.984Z,9.3
2018-06-07T09:37:07.666Z,9.6
2018-06-07T09:38:09.385Z,8.9
2018-06-07T09:39:11.062Z,9.4
2018-06-07T09:40:12.751Z,9.0
2018-06-07T09:41:14.431Z,9.7
2018-06-07T09:42:16.112Z,10.3
2018-06-07T09:43:17.804Z,10.2
2018-06-07T09:44:19.505Z,10.6
2018-06-07T09:45:21.182Z,9.0
2018-06-07T09:46:22.865Z,9.1
2018-06-07T09:47:24.541Z,9.6
2018-06-07T09:48:26.232Z,9.0
2018-06-07T09:49:27.916Z,10.1
2018-06-07T09:50:29.614Z,9.9
2018-06-07T09:51:31.346Z,10.0
2018-06-07T09:52:33.023Z,9.8
2018-06-07T09:53:34.703Z,9.1
2018-06-07T09:54:36.398Z,9.7
2018-06-07T09:55:38.093Z,9.9
2018-06-07T10:02:00.877Z,8.5
2018-06-07T10:03:02.587Z,8.6
2018-06-07T10:04:04.287Z,8.9
2018-06-07T10:05:05.961Z,8.4
2018-06-07T10:06:07.655Z,8.0
2018-06-07T10:07:09.342Z,8.5
2018-06-07T10:08:11.039Z,8.3
2018-06-07T10:09:12.738Z,8.4
2018-06-07T10:10:14.429Z,8.1
2018-06-07T10:11:16.130Z,8.3
2018-06-07T10:12:17.803Z,8.1
2018-06-07T10:13:19.485Z,8.8
2018-06-07T10:14:21.160Z,9.2
2018-06-07T10:15:22.843Z,8.0
2018-06-07T10:16:24.522Z,8.0
2018-06-07T10:17:26.211Z,8.0
2018-06-07T10:18:27.885Z,7.7
2018-06-07T10:19:29.569Z,8.0
2018-06-07T10:20:31.261Z,8.8
2018-06-07T10:21:32.946Z,7.8
2018-06-07T10:22:34.640Z,8.7
2018-06-07T10:23:36.338Z,8.1
2018-06-07T10:24:38.070Z,8.1
2018-06-07T10:25:39.752Z,8.2
2018-06-07T10:26:41.484Z,8.3
2018-06-07T10:27:43.161Z,8.1
2018-06-07T10:28:44.956Z,8.1
2018-06-07T10:29:46.625Z,7.8
2018-06-07T10:30:48.307Z,8.5
2018-06-07T10:31:50.003Z,7.9
2018-06-07T10:32:51.689Z,8.7
2018-06-07T10:33:53.394Z,7.8
2018-06-07T10:34:55.062Z,7.8
2018-06-07T10:35:56.741Z,8.1
2018-06-07T10:36:58.693Z,8.4
2018-06-07T10:38:00.466Z,8.1
2018-06-07T10:39:02.149Z,8.2
2018-06-07T10:40:03.828Z,8.1
2018-06-07T10:41:05.552Z,7.8
2018-06-07T10:42:07.234Z,8.4
2018-06-07T10:43:08.922Z,7.8
2018-06-07T10:44:10.640Z,7.2
2018-06-07T10:45:12.277Z,6.9
2018-06-07T10:46:13.980Z,7.9
2018-06-07T10:47:15.663Z,7.7
2018-06-07T10:48:17.344Z,7.2
2018-06-07T10:49:19.027Z,6.7
2018-06-07T10:50:20.709Z,6.9
2018-06-07T10:51:22.396Z,7.1
2018-06-07T10:52:24.088Z,7.1
2018-06-07T10:53:25.782Z,6.9
2018-06-07T10:54:27.468Z,6.2
2018-06-07T10:55:29.173Z,6.9
2018-06-07T10:56:30.885Z,6.6
2018-06-07T10:57:32.564Z,7.3
2018-06-07T10:58:34.259Z,6.8
2018-06-07T10:59:35.952Z,7.0
2018-06-07T11:00:37.639Z,7.3
2018-06-07T11:01:39.330Z,6.8
2018-06-07T11:02:41.094Z,6.6
2018-06-07T11:03:42.795Z,6.5
2018-06-07T11:04:45.383Z,6.1
2018-06-07T11:05:47.061Z,7.0
2018-06-07T11:06:48.748Z,7.4
2018-06-07T11:07:50.429Z,6.9
2018-06-07T11:08:52.122Z,7.5
2018-06-07T11:09:53.799Z,7.0
2018-06-07T11:10:55.647Z,7.4
2018-06-07T11:11:57.377Z,6.3
2018-06-07T11:12:59.081Z,6.8
2018-06-07T11:14:00.789Z,7.2
2018-06-07T11:15:02.561Z,7.4
2018-06-07T11:16:04.180Z,7.0
2018-06-07T11:17:05.926Z,6.4
2018-06-07T11:18:07.629Z,7.6
2018-06-07T11:19:09.331Z,6.6
2018-06-07T11:20:11.036Z,6.4
2018-06-07T11:21:12.754Z,6.8
2018-06-07T11:22:14.446Z,7.0
2018-06-07T11:23:16.125Z,7.3
2018-06-07T11:24:18.743Z,7.2
2018-06-07T11:25:20.436Z,7.3
2018-06-07T11:26:22.123Z,7.4
2018-06-07T11:27:23.827Z,7.3
2018-06-07T11:28:25.514Z,8.0
2018-06-07T11:29:27.197Z,7.7
2018-06-07T11:30:28.891Z,7.4
2018-06-07T11:31:30.670Z,7.6
2018-06-07T11:32:32.271Z,6.9
2018-06-07T11:33:34.871Z,6.6
2018-06-07T11:34:36.557Z,6.7
2018-06-07T11:35:38.271Z,7.6
2018-06-07T11:36:39.951Z,7.0
2018-06-07T11:37:41.632Z,6.8
2018-06-07T11:38:43.320Z,6.9
2018-06-07T11:39:45.022Z,6.8
2018-06-07T11:40:46.706Z,7.0
2018-06-07T11:41:48.375Z,7.5
2018-06-07T11:42:50.071Z,6.3
2018-06-07T11:43:51.760Z,6.5
2018-06-07T11:44:53.444Z,7.1
2018-06-07T11:45:55.128Z,7.3
2018-06-07T11:46:56.810Z,8.0
2018-06-07T11:47:58.502Z,6.9
2018-06-07T11:49:00.236Z,7.3
2018-06-07T11:50:01.888Z,7.5
2018-06-07T11:51:03.575Z,6.6
2018-06-07T11:52:05.266Z,7.8
2018-06-07T11:53:06.949Z,7.1
2018-06-07T11:54:08.628Z,7.3
2018-06-07T11:55:10.321Z,7.7
2018-06-07T11:56:12.005Z,6.9
2018-06-07T11:57:13.696Z,7.5
2018-06-07T11:58:15.381Z,6.6
2018-06-07T11:59:17.053Z,7.1
2018-06-07T12:00:18.742Z,7.4
2018-06-07T12:01:20.452Z,7.5
2018-06-07T12:02:22.139Z,7.2
2018-06-07T12:03:23.819Z,7.4
2018-06-07T12:04:25.521Z,7.5
2018-06-07T12:05:27.198Z,7.8
2018-06-07T12:06:28.916Z,7.3
2018-06-07T12:07:30.589Z,8.0
2018-06-07T12:08:32.276Z,7.9
2018-06-07T12:09:33.950Z,7.9
2018-06-07T12:10:35.637Z,7.8
2018-06-07T12:11:37.334Z,7.5
2018-06-07T12:12:39.025Z,8.1
2018-06-07T12:13:40.709Z,8.2
2018-06-07T12:14:42.381Z,8.3
2018-06-07T12:15:44.057Z,8.0
2018-06-07T12:16:45.753Z,8.5
2018-06-07T12:17:47.439Z,8.7
2018-06-07T12:18:49.123Z,8.4
2018-06-07T12:19:50.803Z,7.5
2018-06-07T12:20:52.486Z,8.0
2018-06-07T12:21:54.169Z,7.5
2018-06-07T12:22:55.863Z,7.9
2018-06-07T12:23:57.552Z,8.0
2018-06-07T12:24:59.234Z,7.1
2018-06-07T12:26:00.937Z,7.8
2018-06-07T12:27:02.605Z,7.4
2018-06-07T12:28:04.283Z,7.7
2018-06-07T12:29:05.964Z,7.3
2018-06-07T12:30:07.639Z,7.5
2018-06-07T12:31:09.401Z,7.9
2018-06-07T12:32:11.136Z,7.7
2018-06-07T12:33:12.778Z,8.1
2018-06-07T12:34:14.468Z,7.5
2018-06-07T12:35:16.160Z,8.0
2018-06-07T12:36:17.852Z,7.9
2018-06-07T12:37:19.536Z,7.6
2018-06-07T12:38:21.233Z,7.8
2018-06-07T12:39:22.914Z,7.9
2018-06-07T12:40:24.644Z,8.2
2018-06-07T12:41:26.242Z,7.9
2018-06-07T12:42:27.914Z,7.6
2018-06-07T12:43:29.599Z,7.6
2018-06-07T12:44:31.279Z,8.6
2018-06-07T12:45:32.966Z,7.8
2018-06-07T12:46:34.636Z,8.4
2018-06-07T12:47:36.317Z,6.9
2018-06-07T12:48:38.026Z,9.3
2018-06-07T12:49:39.700Z,9.6
2018-06-07T12:50:41.381Z,9.8
2018-06-07T12:51:43.063Z,8.6
2018-06-07T12:52:44.748Z,9.2
2018-06-07T12:53:46.434Z,9.6
2018-06-07T12:54:48.116Z,9.1
2018-06-07T12:55:49.809Z,8.2
2018-06-07T12:56:51.493Z,9.2
2018-06-07T12:57:53.164Z,9.2
2018-06-07T12:58:54.839Z,9.7
2018-06-07T12:59:56.535Z,9.4
2018-06-07T13:00:58.205Z,8.9
2018-06-07T13:01:59.887Z,9.5
2018-06-07T13:03:01.565Z,9.8
2018-06-07T13:04:03.247Z,10.1
2018-06-07T13:05:04.906Z,10.4
2018-06-07T13:06:06.585Z,9.6
2018-06-07T13:07:08.281Z,10.2
2018-06-07T13:08:09.965Z,9.7
2018-06-07T13:09:11.642Z,10.2
2018-06-07T13:10:13.325Z,10.3
2018-06-07T13:11:15.007Z,10.1
2018-06-07T13:12:16.672Z,9.6
2018-06-07T13:13:18.345Z,10.1
2018-06-07T13:14:20.023Z,9.1
2018-06-07T13:15:21.698Z,9.9
2018-06-07T13:16:23.371Z,10.4
2018-06-07T13:17:25.071Z,10.7
2018-06-07T13:18:26.745Z,10.6
2018-06-07T13:19:28.447Z,9.9
2018-06-07T13:20:30.138Z,9.9
2018-06-07T13:21:31.817Z,10.6
2018-06-07T13:22:33.495Z,10.4
2018-06-07T13:23:35.173Z,10.0
2018-06-07T13:24:36.838Z,10.1
2018-06-07T13:25:38.534Z,11.1
2018-06-07T13:26:40.206Z,10.2
2018-06-07T13:27:41.868Z,10.3
2018-06-07T13:28:43.576Z,11.0
2018-06-07T13:29:45.923Z,10.7
2018-06-07T13:30:47.674Z,10.6
2018-06-07T13:31:49.337Z,10.3
2018-06-07T13:32:51.049Z,10.2
2018-06-07T13:33:52.732Z,10.4
2018-06-07T13:34:54.409Z,10.0
2018-06-07T13:35:56.079Z,10.5
2018-06-07T13:36:57.755Z,10.0
2018-06-07T13:37:59.430Z,9.5
2018-06-07T13:39:01.091Z,10.0
2018-06-07T13:40:02.760Z,9.4
2018-06-07T13:41:04.444Z,9.4
2018-06-07T13:42:06.121Z,10.0
2018-06-07T13:43:07.792Z,9.4
2018-06-07T13:44:09.479Z,8.8
2018-06-07T13:45:11.149Z,9.3
2018-06-07T13:46:12.821Z,9.9
2018-06-07T13:47:14.508Z,9.1
2018-06-07T13:48:16.182Z,9.4
2018-06-07T13:49:17.857Z,9.8
2018-06-07T13:50:19.547Z,9.8
2018-06-07T13:51:21.232Z,9.8
2018-06-07T13:52:22.914Z,9.4
2018-06-07T13:53:24.593Z,9.4
2018-06-07T13:54:26.284Z,9.7
2018-06-07T13:55:27.961Z,10.1
2018-06-07T14:01:31.632Z,10.3
2018-06-07T14:02:33.356Z,10.3
2018-06-07T14:03:35.026Z,10.6
2018-06-07T14:04:36.699Z,9.9
2018-06-07T14:05:38.387Z,9.8
2018-06-07T14:06:40.058Z,10.9
2018-06-07T14:07:41.732Z,10.7
2018-06-07T14:08:43.399Z,11.5
2018-06-07T14:09:45.073Z,10.5